Terminal Aerodrome Forecast
Issued by NWS Wakefield, VA

Home | Current Version | Previous Version | Text Only | Print | Product List | Glossary On
Versions: 1 2 3 4 5 6 7 8 9 10 11 12 13 14 15 16 17 18 19 20 21 22 23
050
FTUS41 KAKQ 300208 AAA
TAFECG
TAF AMD
KECG 300208Z 3002/3024 08008KT P6SM SCT150
     FM300500 09005KT 6SM -SHRA OVC040
     FM300800 09005KT 6SM -SHRA OVC025
     FM301300 17006KT P6SM OVC035
     FM301800 25005KT P6SM BKN060=

USA.gov is the U.S. government's official web portal to all federal, state and local government web resources and services.